createdAt,value
2023-02-05T00:00:17.459Z,6.38
2023-02-05T00:02:20.209Z,5.20
2023-02-05T00:04:23.019Z,7.50
2023-02-05T00:06:25.697Z,6.30
2023-02-05T00:08:30.302Z,6.07
2023-02-05T00:10:33.005Z,5.78
2023-02-05T00:12:35.678Z,6.20
2023-02-05T00:14:38.410Z,5.47
2023-02-05T00:16:42.526Z,6.10
2023-02-05T00:18:45.741Z,5.55
2023-02-05T00:20:48.456Z,5.70
2023-02-05T00:22:51.087Z,5.82
2023-02-05T00:24:53.712Z,5.57
2023-02-05T00:26:56.465Z,5.88
2023-02-05T00:28:59.170Z,5.75
2023-02-05T00:31:02.514Z,5.07
2023-02-05T00:33:06.706Z,5.63
2023-02-05T00:35:09.427Z,5.43
2023-02-05T00:37:12.701Z,5.70
2023-02-05T00:39:16.023Z,5.35
2023-02-05T00:41:19.491Z,5.03
2023-02-05T00:43:22.205Z,5.50
2023-02-05T00:45:24.843Z,5.97
2023-02-05T00:47:27.453Z,6.13
2023-02-05T00:49:31.630Z,5.03
2023-02-05T00:51:34.298Z,6.43
2023-02-05T00:53:37.113Z,5.82
2023-02-05T00:55:39.767Z,8.50
2023-02-05T00:57:43.522Z,5.72
2023-02-05T00:59:46.146Z,6.10
2023-02-05T01:01:48.870Z,7.25
2023-02-05T01:03:51.552Z,7.45
2023-02-05T01:05:55.629Z,7.85
2023-02-05T01:07:58.366Z,8.13
2023-02-05T01:10:01.131Z,7.65
2023-02-05T01:12:03.827Z,7.32
2023-02-05T01:14:06.512Z,7.93
2023-02-05T01:16:10.587Z,7.45
2023-02-05T01:18:13.697Z,7.80
2023-02-05T01:20:16.605Z,8.77
2023-02-05T01:22:20.865Z,8.55
2023-02-05T01:24:23.484Z,7.88
2023-02-05T01:26:26.109Z,7.95
2023-02-05T01:28:28.904Z,7.72
2023-02-05T01:30:31.633Z,8.35
2023-02-05T01:32:34.414Z,9.38
2023-02-05T01:34:37.597Z,7.93
2023-02-05T01:36:40.413Z,7.47
2023-02-05T01:38:44.491Z,8.05
2023-02-05T01:40:47.415Z,7.57
2023-02-05T01:42:50.217Z,7.13
2023-02-05T01:45:32.619Z,7.45
2023-02-05T01:47:35.743Z,7.88
2023-02-05T01:49:42.449Z,7.65
2023-02-05T01:51:46.688Z,7.90
2023-02-05T01:53:51.332Z,7.90
2023-02-05T01:55:58.489Z,7.80
2023-02-05T01:58:02.530Z,8.55
2023-02-05T02:00:06.597Z,7.00
2023-02-05T02:02:09.303Z,7.10
2023-02-05T02:04:14.783Z,8.30
2023-02-05T02:06:17.574Z,8.43
2023-02-05T02:08:20.221Z,8.60
2023-02-05T02:10:24.503Z,7.18
2023-02-05T02:12:29.606Z,8.82
2023-02-05T02:14:35.536Z,7.57
2023-02-05T02:16:39.964Z,7.82
2023-02-05T02:18:44.077Z,8.10
2023-02-05T02:20:49.929Z,9.20
2023-02-05T02:23:08.837Z,9.27
2023-02-05T02:25:30.132Z,9.02
2023-02-05T02:27:54.994Z,9.32
2023-02-05T02:30:01.846Z,9.00
2023-02-05T02:32:12.307Z,8.60
2023-02-05T02:34:19.492Z,8.63
2023-02-05T02:36:29.279Z,7.72
2023-02-05T02:38:36.049Z,7.50
2023-02-05T02:40:43.190Z,8.25
2023-02-05T02:42:50.137Z,7.90
2023-02-05T02:47:04.278Z,7.40
2023-02-05T02:49:09.556Z,7.25
2023-02-05T02:51:14.408Z,7.53
2023-02-05T02:53:21.409Z,8.35
2023-02-05T02:55:25.485Z,8.32
2023-02-05T02:57:30.586Z,8.57
2023-02-05T02:59:39.117Z,8.43
2023-02-05T03:01:53.349Z,7.63
2023-02-05T03:04:01.062Z,8.27
2023-02-05T03:06:06.828Z,7.80
2023-02-05T03:08:14.001Z,8.25
2023-02-05T03:10:25.562Z,8.50
2023-02-05T03:12:28.404Z,8.85
2023-02-05T03:14:32.174Z,7.45
2023-02-05T03:16:34.986Z,7.15
2023-02-05T03:18:39.665Z,8.20
2023-02-05T03:20:46.516Z,8.27
2023-02-05T03:22:49.215Z,7.53
2023-02-05T03:24:52.601Z,7.78
2023-02-05T03:26:55.272Z,8.00
2023-02-05T03:28:59.380Z,7.60
2023-02-05T03:31:09.489Z,8.57
2023-02-05T03:33:27.603Z,7.70
2023-02-05T03:35:40.583Z,7.68
2023-02-05T03:37:57.455Z,7.75
2023-02-05T03:40:10.795Z,7.50
2023-02-05T03:42:23.404Z,8.25
2023-02-05T03:44:45.004Z,7.47
2023-02-05T03:46:58.212Z,6.88
2023-02-05T03:49:15.402Z,7.47
2023-02-05T03:51:24.417Z,8.02
2023-02-05T03:53:34.335Z,7.22
2023-02-05T03:55:42.521Z,7.63
2023-02-05T03:57:51.588Z,8.38
2023-02-05T03:59:55.649Z,7.80
2023-02-05T04:01:58.763Z,8.27
2023-02-05T04:04:01.459Z,7.68
2023-02-05T04:06:04.880Z,7.47
2023-02-05T04:08:09.012Z,7.45
2023-02-05T04:10:11.854Z,7.45
2023-02-05T04:12:14.595Z,7.18
2023-02-05T04:14:17.332Z,7.38
2023-02-05T04:16:19.949Z,6.78
2023-02-05T04:18:22.737Z,7.10
2023-02-05T04:20:25.544Z,6.97
2023-02-05T04:22:28.280Z,6.97
2023-02-05T04:24:32.405Z,7.72
2023-02-05T04:26:35.123Z,7.55
2023-02-05T04:28:37.755Z,7.18
2023-02-05T04:30:40.672Z,6.65
2023-02-05T04:32:43.603Z,7.05
2023-02-05T04:34:47.221Z,7.00
2023-02-05T04:36:49.903Z,7.88
2023-02-05T04:38:52.585Z,6.95
2023-02-05T04:40:56.938Z,6.57
2023-02-05T04:42:59.680Z,6.25
2023-02-05T04:45:02.337Z,7.20
2023-02-05T04:47:05.057Z,7.43
2023-02-05T04:49:07.719Z,7.88
2023-02-05T04:51:12.191Z,7.80
2023-02-05T04:53:14.967Z,8.40
2023-02-05T04:55:17.661Z,7.43
2023-02-05T04:57:21.717Z,7.68
2023-02-05T04:59:24.464Z,7.70
2023-02-05T05:01:27.238Z,7.30
2023-02-05T05:03:30.023Z,7.93
2023-02-05T05:05:33.230Z,7.95
2023-02-05T05:07:36.416Z,8.45
2023-02-05T05:09:39.202Z,8.13
2023-02-05T05:11:41.917Z,8.73
2023-02-05T05:13:46.529Z,9.93
2023-02-05T05:15:54.681Z,9.60
2023-02-05T05:17:57.627Z,10.15
2023-02-05T05:20:00.205Z,8.75
2023-02-05T05:22:02.838Z,8.48
2023-02-05T05:24:05.697Z,9.73
2023-02-05T05:26:10.265Z,9.00
2023-02-05T05:28:13.766Z,8.55
2023-02-05T05:30:17.796Z,8.43
2023-02-05T05:32:20.656Z,7.88
2023-02-05T05:34:23.323Z,7.53
2023-02-05T05:36:26.002Z,9.10
2023-02-05T05:38:28.758Z,7.88
2023-02-05T05:40:49.498Z,8.85
2023-02-05T05:43:12.121Z,8.02
2023-02-05T05:45:14.930Z,7.82
2023-02-05T05:47:19.084Z,8.25
2023-02-05T05:49:22.075Z,9.43
2023-02-05T05:51:26.021Z,8.27
2023-02-05T05:53:29.023Z,7.70
2023-02-05T05:55:31.833Z,7.50
2023-02-05T05:57:34.739Z,8.55
2023-02-05T05:59:37.666Z,6.95
2023-02-05T06:01:40.385Z,6.45
2023-02-05T06:03:44.458Z,7.60
2023-02-05T06:05:47.159Z,8.30
2023-02-05T06:07:49.960Z,7.63
2023-02-05T06:09:52.659Z,6.82
2023-02-05T06:11:55.422Z,7.72
2023-02-05T06:13:58.014Z,6.88
2023-02-05T06:16:00.704Z,7.80
2023-02-05T06:18:03.425Z,7.43
2023-02-05T06:20:08.069Z,8.15
2023-02-05T06:22:10.864Z,8.93
2023-02-05T06:24:13.505Z,8.27
2023-02-05T06:26:16.529Z,8.88
2023-02-05T06:28:19.552Z,7.80
2023-02-05T06:30:22.211Z,7.95
2023-02-05T06:32:26.836Z,8.82
2023-02-05T06:34:29.741Z,7.88
2023-02-05T06:36:33.780Z,7.72
2023-02-05T06:38:36.500Z,7.75
2023-02-05T06:40:39.195Z,7.78
2023-02-05T06:42:41.923Z,8.05
2023-02-05T06:44:44.661Z,8.40
2023-02-05T06:46:47.346Z,7.55
2023-02-05T06:48:49.977Z,8.43
2023-02-05T06:50:52.641Z,8.13
2023-02-05T06:52:56.758Z,8.20
2023-02-05T06:54:59.462Z,7.80
2023-02-05T06:57:02.040Z,8.90
2023-02-05T06:59:05.189Z,9.20
2023-02-05T07:01:07.873Z,7.50
2023-02-05T07:03:10.803Z,7.40
2023-02-05T07:05:13.505Z,9.20
2023-02-05T07:07:17.098Z,7.95
2023-02-05T07:09:21.968Z,7.82
2023-02-05T07:11:24.699Z,7.75
2023-02-05T07:13:27.478Z,7.40
2023-02-05T07:15:30.137Z,7.28
2023-02-05T07:17:32.742Z,7.55
2023-02-05T07:19:35.883Z,7.70
2023-02-05T07:21:38.498Z,7.20
2023-02-05T07:23:41.169Z,7.40
2023-02-05T07:25:46.212Z,7.78
2023-02-05T07:27:48.947Z,8.18
2023-02-05T07:29:51.673Z,7.68
2023-02-05T07:31:54.376Z,8.18
2023-02-05T07:33:57.050Z,7.00
2023-02-05T07:35:59.772Z,7.03
2023-02-05T07:38:02.415Z,8.40
2023-02-05T07:40:05.876Z,8.95
2023-02-05T07:42:10.222Z,7.88
2023-02-05T07:44:13.540Z,8.55
2023-02-05T07:46:16.351Z,7.97
2023-02-05T07:48:18.978Z,8.32
2023-02-05T07:50:21.685Z,8.32
2023-02-05T07:52:24.306Z,7.78
2023-02-05T07:54:26.957Z,7.82
2023-02-05T07:56:29.949Z,8.27
2023-02-05T07:58:34.003Z,7.93
2023-02-05T08:00:36.725Z,7.28
2023-02-05T08:02:39.433Z,7.65
2023-02-05T08:04:42.049Z,7.60
2023-02-05T08:06:44.760Z,7.30
2023-02-05T08:08:47.384Z,7.20
2023-02-05T08:10:56.635Z,6.70
2023-02-05T08:12:59.553Z,6.82
2023-02-05T08:15:03.799Z,7.40
2023-02-05T08:17:07.188Z,7.90
2023-02-05T08:19:15.192Z,8.45
2023-02-05T08:21:18.643Z,8.23
2023-02-05T08:23:21.974Z,8.10
2023-02-05T08:25:24.652Z,8.40
2023-02-05T08:27:29.839Z,8.30
2023-02-05T08:29:33.162Z,7.32
2023-02-05T08:31:38.038Z,7.88
2023-02-05T08:33:40.950Z,7.38
2023-02-05T08:35:43.748Z,7.38
2023-02-05T08:37:46.584Z,6.45
2023-02-05T08:39:50.377Z,8.35
2023-02-05T08:41:54.874Z,7.03
2023-02-05T08:43:58.924Z,8.25
2023-02-05T08:46:01.652Z,8.73
2023-02-05T08:48:05.877Z,7.70
2023-02-05T08:50:10.486Z,7.00
2023-02-05T08:52:13.216Z,7.65
2023-02-05T08:54:16.408Z,7.38
2023-02-05T08:56:20.262Z,7.82
2023-02-05T08:58:23.156Z,8.77
2023-02-05T09:00:26.040Z,7.07
2023-02-05T09:02:31.805Z,7.85
2023-02-05T09:04:36.306Z,7.82
2023-02-05T09:06:39.082Z,7.57
2023-02-05T09:08:42.150Z,6.88
2023-02-05T09:10:45.684Z,8.35
2023-02-05T09:12:48.787Z,7.53
2023-02-05T09:14:51.434Z,8.77
2023-02-05T09:16:54.319Z,8.13
2023-02-05T09:18:57.636Z,8.30
2023-02-05T09:21:01.696Z,7.88
2023-02-05T09:23:04.401Z,7.82
2023-02-05T09:25:07.784Z,9.30
2023-02-05T09:27:14.096Z,8.68
2023-02-05T09:29:16.791Z,8.65
2023-02-05T09:31:21.770Z,8.38
2023-02-05T09:33:24.507Z,7.60
2023-02-05T09:35:27.265Z,8.18
2023-02-05T09:37:31.255Z,8.27
2023-02-05T09:42:01.884Z,7.95
2023-02-05T09:44:14.088Z,8.68
2023-02-05T09:46:27.056Z,9.32
2023-02-05T09:48:52.093Z,9.07
2023-02-05T09:50:58.148Z,9.05
2023-02-05T09:53:05.965Z,8.75
2023-02-05T09:55:20.994Z,10.05
2023-02-05T09:57:33.885Z,8.75
2023-02-05T10:01:45.419Z,8.77
2023-02-05T10:03:53.350Z,7.50
2023-02-05T10:06:09.672Z,8.65
2023-02-05T10:08:20.747Z,9.10
2023-02-05T10:10:29.111Z,8.25
2023-02-05T10:12:43.047Z,7.35
2023-02-05T10:14:55.884Z,8.68
2023-02-05T10:19:27.707Z,8.70
2023-02-05T10:21:47.452Z,9.27
2023-02-05T10:24:08.929Z,9.45
2023-02-05T10:26:13.260Z,8.73
2023-02-05T10:28:41.456Z,9.13
2023-02-05T10:30:52.409Z,7.75
2023-02-05T10:32:58.724Z,8.68
2023-02-05T10:35:09.999Z,10.10
2023-02-05T10:37:16.684Z,9.57
2023-02-05T10:39:24.121Z,7.88
2023-02-05T10:41:32.398Z,7.50
2023-02-05T10:43:41.780Z,7.97
2023-02-05T10:45:44.716Z,9.40
2023-02-05T10:47:57.831Z,8.95
2023-02-05T10:50:05.238Z,9.50
2023-02-05T10:52:12.483Z,7.95
2023-02-05T10:54:24.043Z,8.73
2023-02-05T10:56:26.817Z,7.93
2023-02-05T10:58:39.674Z,8.18
2023-02-05T11:02:49.734Z,6.05
2023-02-05T11:04:57.134Z,7.07
2023-02-05T11:07:01.673Z,8.57
2023-02-05T11:09:05.038Z,8.40
2023-02-05T11:11:20.925Z,7.88
2023-02-05T11:13:24.009Z,7.97
2023-02-05T11:15:28.949Z,7.78
2023-02-05T11:17:34.558Z,8.57
2023-02-05T11:19:37.753Z,7.78
2023-02-05T11:21:48.991Z,5.70
2023-02-05T11:23:56.599Z,7.60
2023-02-05T11:26:01.591Z,7.30
2023-02-05T11:28:06.194Z,7.70
2023-02-05T11:32:50.646Z,5.68
2023-02-05T11:35:10.647Z,6.55
2023-02-05T11:37:17.363Z,6.43
2023-02-05T11:39:34.062Z,6.93
2023-02-05T11:41:48.334Z,6.75
2023-02-05T11:43:53.580Z,6.82
2023-02-05T11:45:58.884Z,6.28
2023-02-05T11:48:04.091Z,6.28
2023-02-05T11:50:21.216Z,6.40
2023-02-05T11:52:28.544Z,6.05
2023-02-05T11:54:33.897Z,6.43
2023-02-05T11:56:36.618Z,6.05
2023-02-05T11:58:39.426Z,6.15
2023-02-05T12:00:52.969Z,6.95
2023-02-05T12:03:08.340Z,6.60
2023-02-05T12:05:19.672Z,6.88
2023-02-05T12:07:24.946Z,5.78
2023-02-05T12:09:28.366Z,5.45
2023-02-05T12:12:03.750Z,5.38
2023-02-05T12:14:14.713Z,5.20
2023-02-05T12:16:33.324Z,5.57
2023-02-05T12:18:47.585Z,5.95
2023-02-05T12:21:01.600Z,6.25
2023-02-05T12:23:44.542Z,6.53
2023-02-05T12:25:57.659Z,6.05
2023-02-05T12:28:20.313Z,5.60
2023-02-05T12:30:44.249Z,5.38
2023-02-05T12:32:59.957Z,5.43
2023-02-05T12:35:16.429Z,4.90
2023-02-05T12:37:34.420Z,5.32
2023-02-05T12:39:45.256Z,5.80
2023-02-05T12:42:01.889Z,5.80
2023-02-05T12:44:20.665Z,5.70
2023-02-05T12:48:53.556Z,5.88
2023-02-05T12:51:10.942Z,6.40
2023-02-05T12:53:39.068Z,5.30
2023-02-05T12:55:58.753Z,4.65
2023-02-05T12:58:04.666Z,5.30
2023-02-05T13:00:14.927Z,5.38
2023-02-05T13:02:29.071Z,5.30
2023-02-05T13:04:37.440Z,5.68
2023-02-05T13:06:47.074Z,5.63
2023-02-05T13:08:53.100Z,5.10
2023-02-05T13:10:59.748Z,5.50
2023-02-05T13:13:05.934Z,5.88
2023-02-05T13:15:16.681Z,6.53
2023-02-05T13:17:24.899Z,6.63
2023-02-05T13:19:32.021Z,6.50
2023-02-05T13:21:53.509Z,6.90
2023-02-05T13:24:31.012Z,6.25
2023-02-05T13:26:57.318Z,6.90
2023-02-05T13:29:06.829Z,6.05
2023-02-05T13:31:18.883Z,5.70
2023-02-05T13:33:21.720Z,5.88
2023-02-05T13:35:25.843Z,4.63
2023-02-05T13:37:42.842Z,4.10
2023-02-05T13:40:24.201Z,3.28
2023-02-05T13:42:45.983Z,3.55
2023-02-05T13:45:22.179Z,3.47
2023-02-05T13:47:40.654Z,2.78
2023-02-05T13:50:16.209Z,3.72
2023-02-05T13:53:00.281Z,2.65
2023-02-05T13:55:26.315Z,3.20
2023-02-05T13:58:06.655Z,2.97
2023-02-05T14:00:13.848Z,3.58
2023-02-05T14:02:31.673Z,3.05
2023-02-05T14:04:40.701Z,3.22
2023-02-05T14:06:47.465Z,2.95
2023-02-05T14:08:55.240Z,3.80
2023-02-05T14:11:03.052Z,3.28
2023-02-05T14:13:18.461Z,2.45
2023-02-05T14:15:37.616Z,2.78
2023-02-05T14:17:55.837Z,3.53
2023-02-05T14:20:01.075Z,2.90
2023-02-05T14:22:08.111Z,2.67
2023-02-05T14:24:38.873Z,2.22
2023-02-05T14:26:51.441Z,1.95
2023-02-05T14:28:55.822Z,2.55
2023-02-05T14:30:59.787Z,2.30
2023-02-05T14:33:04.215Z,2.13
2023-02-05T14:35:31.632Z,2.60
2023-02-05T14:37:38.015Z,2.67
2023-02-05T14:39:40.668Z,2.80
2023-02-05T14:41:51.578Z,2.88
2023-02-05T14:43:58.506Z,3.05
2023-02-05T14:48:07.553Z,2.75
2023-02-05T14:50:18.100Z,2.53
2023-02-05T14:52:29.598Z,3.05
2023-02-05T14:54:35.088Z,2.80
2023-02-05T14:56:43.916Z,3.38
2023-02-05T14:58:47.916Z,3.17
2023-02-05T15:00:50.742Z,3.65
2023-02-05T15:03:20.253Z,2.60
2023-02-05T15:05:31.455Z,2.80
2023-02-05T15:07:36.982Z,2.47
2023-02-05T15:09:45.117Z,2.90
2023-02-05T15:12:04.410Z,2.90
2023-02-05T15:14:33.146Z,2.90
2023-02-05T15:16:38.289Z,2.53
2023-02-05T15:18:43.224Z,2.38
2023-02-05T15:20:48.294Z,2.67
2023-02-05T15:22:58.062Z,3.72
2023-02-05T15:25:02.255Z,3.25
2023-02-05T15:27:15.039Z,3.15
2023-02-05T15:31:34.513Z,3.10
2023-02-05T15:33:46.560Z,3.05
2023-02-05T15:35:52.624Z,2.70
2023-02-05T15:37:56.824Z,3.15
2023-02-05T15:40:06.467Z,2.90
2023-02-05T15:42:15.122Z,2.40
2023-02-05T15:44:24.885Z,3.08
2023-02-05T15:46:29.517Z,3.20
2023-02-05T15:48:35.390Z,2.53
2023-02-05T15:50:45.152Z,2.97
2023-02-05T15:52:47.860Z,2.60
2023-02-05T15:54:51.667Z,2.80
2023-02-05T15:56:55.450Z,2.83
2023-02-05T15:59:00.923Z,2.80
2023-02-05T16:01:04.374Z,2.50
2023-02-05T16:03:26.024Z,2.85
2023-02-05T16:05:30.473Z,2.58
2023-02-05T16:07:41.806Z,2.55
2023-02-05T16:09:47.561Z,2.80
2023-02-05T16:11:50.260Z,2.70
2023-02-05T16:14:03.826Z,3.00
2023-02-05T16:16:12.302Z,2.70
2023-02-05T16:18:22.000Z,2.72
2023-02-05T16:20:28.961Z,3.20
2023-02-05T16:24:43.019Z,4.13
2023-02-05T16:26:49.317Z,3.42
2023-02-05T16:28:56.681Z,4.03
2023-02-05T16:31:00.906Z,4.68
2023-02-05T16:33:06.264Z,3.88
2023-02-05T16:35:25.605Z,3.88
2023-02-05T16:37:31.305Z,3.97
2023-02-05T16:39:40.466Z,3.90
2023-02-05T16:41:44.894Z,4.32
2023-02-05T16:43:47.709Z,4.32
2023-02-05T16:46:22.214Z,4.25
2023-02-05T16:48:28.297Z,4.32
2023-02-05T16:50:38.165Z,4.00
2023-02-05T16:52:41.991Z,3.95
2023-02-05T16:54:44.736Z,4.43
2023-02-05T16:56:53.244Z,4.30
2023-02-05T16:58:58.491Z,4.20
2023-02-05T17:01:04.145Z,4.25
2023-02-05T17:03:17.074Z,4.85
2023-02-05T17:07:27.415Z,5.03
2023-02-05T17:09:35.553Z,5.00
2023-02-05T17:11:39.875Z,5.38
2023-02-05T17:13:44.611Z,4.93
2023-02-05T17:15:47.376Z,4.90
2023-02-05T17:17:51.953Z,4.68
2023-02-05T17:20:06.211Z,5.20
2023-02-05T17:22:19.964Z,4.85
2023-02-05T17:24:26.915Z,6.53
2023-02-05T17:28:38.123Z,5.35
2023-02-05T17:30:42.158Z,6.20
2023-02-05T17:32:46.843Z,8.32
2023-02-05T17:34:49.549Z,7.07
2023-02-05T17:36:52.422Z,6.03
2023-02-05T17:38:55.430Z,6.50
2023-02-05T17:41:13.493Z,6.85
2023-02-05T17:43:16.282Z,7.40
2023-02-05T17:45:22.304Z,7.88
2023-02-05T17:47:24.966Z,8.48
2023-02-05T17:49:27.994Z,7.28
2023-02-05T17:51:30.902Z,7.55
2023-02-05T17:53:33.762Z,11.00
2023-02-05T17:55:36.460Z,7.70
2023-02-05T17:57:40.576Z,8.02
2023-02-05T17:59:44.781Z,8.88
2023-02-05T18:01:48.216Z,9.52
2023-02-05T18:03:50.915Z,9.02
2023-02-05T18:05:53.555Z,9.20
2023-02-05T18:07:58.602Z,9.75
2023-02-05T18:10:01.351Z,10.07
2023-02-05T18:12:04.095Z,10.02
2023-02-05T18:14:08.507Z,10.45
2023-02-05T18:16:12.468Z,9.07
2023-02-05T18:18:15.348Z,9.98
2023-02-05T18:20:20.787Z,9.20
2023-02-05T18:22:23.569Z,8.40
2023-02-05T18:24:26.149Z,9.00
2023-02-05T18:26:29.016Z,9.02
2023-02-05T18:28:31.754Z,8.55
2023-02-05T18:30:36.056Z,8.63
2023-02-05T18:32:38.938Z,7.57
2023-02-05T18:34:41.722Z,7.90
2023-02-05T18:36:44.366Z,7.03
2023-02-05T18:38:47.130Z,4.90
2023-02-05T18:40:50.429Z,5.50
2023-02-05T18:42:53.892Z,5.05
2023-02-05T18:44:56.609Z,3.97
2023-02-05T18:47:00.598Z,4.53
2023-02-05T18:49:03.277Z,4.60
2023-02-05T18:51:06.684Z,6.00
2023-02-05T18:53:09.342Z,5.55
2023-02-05T18:55:12.545Z,6.57
2023-02-05T18:57:15.219Z,7.05
2023-02-05T18:59:20.970Z,7.72
2023-02-05T19:01:24.056Z,7.30
2023-02-05T19:03:28.563Z,7.18
2023-02-05T19:05:31.255Z,7.43
2023-02-05T19:07:35.046Z,6.47
2023-02-05T19:09:38.032Z,6.75
2023-02-05T19:11:41.542Z,6.63
2023-02-05T19:13:44.508Z,6.82
2023-02-05T19:15:47.252Z,6.60
2023-02-05T19:17:49.935Z,6.63
2023-02-05T19:19:54.573Z,7.20
2023-02-05T19:21:59.845Z,7.32
2023-02-05T19:24:05.600Z,6.00
2023-02-05T19:26:10.316Z,7.20
2023-02-05T19:28:13.073Z,7.32
2023-02-05T19:30:16.017Z,8.20
2023-02-05T19:32:18.650Z,7.68
2023-02-05T19:34:23.417Z,8.13
2023-02-05T19:36:28.128Z,8.07
2023-02-05T19:38:31.523Z,8.35
2023-02-05T19:40:36.021Z,9.77
2023-02-05T19:42:39.426Z,8.48
2023-02-05T19:44:42.186Z,9.25
2023-02-05T19:46:45.189Z,9.55
2023-02-05T19:48:48.313Z,10.07
2023-02-05T19:50:51.070Z,9.27
2023-02-05T19:52:55.210Z,10.00
2023-02-05T19:54:57.983Z,10.10
2023-02-05T19:57:00.638Z,9.65
2023-02-05T19:59:03.811Z,10.18
2023-02-05T20:01:12.160Z,11.02
2023-02-05T20:03:15.097Z,10.85
2023-02-05T20:05:17.756Z,9.77
2023-02-05T20:07:20.418Z,11.15
2023-02-05T20:09:24.603Z,9.75
2023-02-05T20:11:27.312Z,8.82
2023-02-05T20:13:30.553Z,9.57
2023-02-05T20:15:36.942Z,9.43
2023-02-05T20:17:39.628Z,7.63
2023-02-05T20:19:42.377Z,8.13
2023-02-05T20:21:45.692Z,6.75
2023-02-05T20:23:49.462Z,8.68
2023-02-05T20:25:58.668Z,9.23
2023-02-05T20:28:01.506Z,8.70
2023-02-05T20:30:21.832Z,9.27
2023-02-05T20:32:24.472Z,8.93
2023-02-05T20:34:30.905Z,10.93
2023-02-05T20:36:35.436Z,11.35
2023-02-05T20:38:38.055Z,10.75
2023-02-05T20:40:40.660Z,10.70
2023-02-05T20:42:44.642Z,9.48
2023-02-05T20:44:47.705Z,9.98
2023-02-05T20:46:50.362Z,9.10
2023-02-05T20:48:53.277Z,8.23
2023-02-05T20:50:55.956Z,7.63
2023-02-05T20:52:58.637Z,7.32
2023-02-05T20:55:01.342Z,8.40
2023-02-05T20:57:04.076Z,8.40
2023-02-05T20:59:10.265Z,8.73
2023-02-05T21:01:15.302Z,8.50
2023-02-05T21:03:17.989Z,8.13
2023-02-05T21:05:20.663Z,8.80
2023-02-05T21:07:29.238Z,8.55
2023-02-05T21:09:31.926Z,8.15
2023-02-05T21:11:34.902Z,8.30
2023-02-05T21:13:37.538Z,8.93
2023-02-05T21:15:41.599Z,8.88
2023-02-05T21:17:44.245Z,9.40
2023-02-05T21:19:47.015Z,7.63
2023-02-05T21:21:51.008Z,8.77
2023-02-05T21:23:54.783Z,8.85
2023-02-05T21:25:57.428Z,8.73
2023-02-05T21:28:00.057Z,8.23
2023-02-05T21:30:03.046Z,8.63
2023-02-05T21:32:08.080Z,10.00
2023-02-05T21:34:13.813Z,9.45
2023-02-05T21:36:17.699Z,10.02
2023-02-05T21:38:20.337Z,9.82
2023-02-05T21:40:23.043Z,10.20
2023-02-05T21:42:25.797Z,10.27
2023-02-05T21:44:28.931Z,10.77
2023-02-05T21:46:32.038Z,11.05
2023-02-05T21:48:36.222Z,9.45
2023-02-05T21:50:39.643Z,10.38
2023-02-05T21:52:42.549Z,10.85
2023-02-05T21:54:48.733Z,9.85
2023-02-05T21:56:51.616Z,11.38
2023-02-05T21:58:54.410Z,11.20
2023-02-05T22:00:57.150Z,11.65
2023-02-05T22:02:59.845Z,11.65
2023-02-05T22:05:04.237Z,11.30
2023-02-05T22:07:06.889Z,12.75
2023-02-05T22:09:11.535Z,12.15
2023-02-05T22:11:14.738Z,11.88
2023-02-05T22:13:17.422Z,12.13
2023-02-05T22:15:20.053Z,12.93
2023-02-05T22:17:23.260Z,14.13
2023-02-05T22:19:26.493Z,13.00
2023-02-05T22:21:32.512Z,14.25
2023-02-05T22:23:35.795Z,13.82
2023-02-05T22:25:38.623Z,14.55
2023-02-05T22:27:42.737Z,14.98
2023-02-05T22:29:45.413Z,14.20
2023-02-05T22:31:51.839Z,13.30
2023-02-05T22:33:54.584Z,14.65
2023-02-05T22:35:58.287Z,13.98
2023-02-05T22:38:02.235Z,15.30
2023-02-05T22:40:05.597Z,15.05
2023-02-05T22:42:08.252Z,13.88
2023-02-05T22:44:12.252Z,16.05
2023-02-05T22:46:17.052Z,15.30
2023-02-05T22:48:19.898Z,14.43
2023-02-05T22:50:22.540Z,14.57
2023-02-05T22:52:26.131Z,13.50
2023-02-05T22:54:30.137Z,14.65
2023-02-05T22:56:32.884Z,14.60
2023-02-05T22:58:35.894Z,13.85
2023-02-05T23:00:38.514Z,13.88
2023-02-05T23:02:41.232Z,13.93
2023-02-05T23:04:43.887Z,13.32
2023-02-05T23:06:46.571Z,14.50
2023-02-05T23:08:51.228Z,14.02
2023-02-05T23:10:55.163Z,13.32
2023-02-05T23:12:57.823Z,14.63
2023-02-05T23:15:00.522Z,13.43
2023-02-05T23:17:03.137Z,14.40
2023-02-05T23:19:08.375Z,13.90
2023-02-05T23:21:12.865Z,13.40
2023-02-05T23:23:15.517Z,14.55
2023-02-05T23:25:18.127Z,14.63
2023-02-05T23:27:22.427Z,15.02
2023-02-05T23:29:27.007Z,14.55
2023-02-05T23:31:30.629Z,14.05
2023-02-05T23:33:34.142Z,15.27
2023-02-05T23:35:37.096Z,15.23
2023-02-05T23:37:40.014Z,15.80
2023-02-05T23:39:42.636Z,16.38
2023-02-05T23:41:45.277Z,16.17
2023-02-05T23:43:49.229Z,17.20
2023-02-05T23:45:53.147Z,17.38
2023-02-05T23:47:56.304Z,17.00
2023-02-05T23:49:58.976Z,15.23
2023-02-05T23:52:01.640Z,16.70
2023-02-05T23:54:04.653Z,19.10
2023-02-05T23:56:07.415Z,18.13
2023-02-05T23:58:11.452Z,19.67
